createdAt,value
2023-05-04T00:01:34.850Z,98675.63
2023-05-04T00:04:37.789Z,98667.84
2023-05-04T00:07:40.855Z,98664.88
2023-05-04T00:10:43.546Z,98657.59
2023-05-04T00:13:47.688Z,98654.09
2023-05-04T00:16:50.456Z,98661.38
2023-05-04T00:19:53.234Z,98656.53
2023-05-04T00:22:56.453Z,98654.38
2023-05-04T00:25:59.934Z,98654.09
2023-05-04T00:29:04.033Z,98662.16
2023-05-04T00:32:07.068Z,98651.94
2023-05-04T00:35:10.912Z,98647.09
2023-05-04T00:38:13.980Z,98648.19
2023-05-04T00:41:17.027Z,98641.72
2023-05-04T00:44:23.447Z,98637.69
2023-05-04T00:47:26.614Z,98640.34
2023-05-04T00:50:29.806Z,98641.13
2023-05-04T00:53:32.768Z,98638.19
2023-05-04T00:56:41.059Z,98643.28
2023-05-04T00:59:45.113Z,98642.22
2023-05-04T01:02:47.851Z,98640.03
2023-05-04T01:05:59.950Z,98638.94
2023-05-04T01:09:10.696Z,98639.22
2023-05-04T01:12:19.014Z,98637.56
2023-05-04T01:15:24.018Z,98638.09
2023-05-04T01:18:26.960Z,98639.97
2023-05-04T01:21:31.962Z,98649.63
2023-05-04T01:24:34.868Z,98644.78
2023-05-04T01:27:43.916Z,98636.75
2023-05-04T01:30:50.312Z,98638.03
2023-05-04T01:33:55.103Z,98649.28
2023-05-04T01:37:00.168Z,98647.94
2023-05-04T01:40:04.468Z,98638.00
2023-05-04T01:43:07.331Z,98642.53
2023-05-04T01:46:10.025Z,98638.22
2023-05-04T01:49:12.888Z,98631.78
2023-05-04T01:52:17.074Z,98637.97
2023-05-04T01:55:19.773Z,98642.22
2023-05-04T01:58:22.600Z,98631.22
2023-05-04T02:01:25.400Z,98637.09
2023-05-04T02:04:28.094Z,98642.97
2023-05-04T02:07:32.091Z,98640.00
2023-05-04T02:10:35.002Z,98632.75
2023-05-04T02:13:37.598Z,98634.59
2023-05-04T02:16:40.405Z,98628.63
2023-05-04T02:19:43.218Z,98624.31
2023-05-04T02:22:47.263Z,98624.25
2023-05-04T02:25:50.033Z,98632.25
2023-05-04T02:28:52.856Z,98634.94
2023-05-04T02:31:55.787Z,98630.34
2023-05-04T02:34:58.816Z,98630.28
2023-05-04T02:38:02.983Z,98631.34
2023-05-04T02:41:05.699Z,98625.72
2023-05-04T02:44:08.445Z,98630.88
2023-05-04T02:47:11.126Z,98626.56
2023-05-04T02:50:14.045Z,98628.19
2023-05-04T02:53:18.091Z,98626.00
2023-05-04T02:56:20.801Z,98627.84
2023-05-04T02:59:23.508Z,98627.53
2023-05-04T03:02:26.761Z,98635.03
2023-05-04T03:05:29.507Z,98626.47
2023-05-04T03:08:33.534Z,98627.78
2023-05-04T03:11:36.266Z,98623.75
2023-05-04T03:14:38.954Z,98629.59
2023-05-04T03:17:41.593Z,98633.81
2023-05-04T03:20:44.320Z,98638.31
2023-05-04T03:23:48.356Z,98633.72
2023-05-04T03:26:51.085Z,98632.63
2023-05-04T03:29:53.774Z,98627.56
2023-05-04T03:32:56.548Z,98634.00
2023-05-04T03:35:59.327Z,98628.06
2023-05-04T03:39:03.481Z,98621.06
2023-05-04T03:42:06.175Z,98624.00
2023-05-04T03:45:09.774Z,98614.41
2023-05-04T03:48:12.711Z,98629.66
2023-05-04T03:51:15.745Z,98618.38
2023-05-04T03:54:19.842Z,98615.91
2023-05-04T03:57:24.186Z,98612.69
2023-05-04T04:00:27.154Z,98613.50
2023-05-04T04:03:30.108Z,98621.25
2023-05-04T04:06:33.264Z,98614.28
2023-05-04T04:09:37.419Z,98611.78
2023-05-04T04:12:40.234Z,98613.38
2023-05-04T04:15:44.899Z,98615.50
2023-05-04T04:18:47.673Z,98613.94
2023-05-04T04:21:50.470Z,98614.16
2023-05-04T04:24:54.579Z,98609.38
2023-05-04T04:27:57.663Z,98607.75
2023-05-04T04:31:00.497Z,98601.34
2023-05-04T04:34:03.234Z,98604.56
2023-05-04T04:37:05.988Z,98608.38
2023-05-04T04:40:11.528Z,98608.66
2023-05-04T04:43:14.936Z,98605.72
2023-05-04T04:46:18.289Z,98606.56
2023-05-04T04:49:21.022Z,98608.13
2023-05-04T04:52:23.805Z,98600.72
2023-05-04T04:55:28.009Z,98608.28
2023-05-04T04:58:31.223Z,98608.34
2023-05-04T05:01:34.155Z,98595.50
2023-05-04T05:04:38.545Z,98598.22
2023-05-04T05:07:41.384Z,98598.50
2023-05-04T05:10:45.425Z,98602.28
2023-05-04T05:13:48.123Z,98596.97
2023-05-04T05:16:51.055Z,98590.59
2023-05-04T05:19:53.842Z,98595.72
2023-05-04T05:22:56.545Z,98592.34
2023-05-04T05:26:03.131Z,98593.72
2023-05-04T05:29:06.131Z,98592.44
2023-05-04T05:32:08.765Z,98595.25
2023-05-04T05:35:12.364Z,98598.53
2023-05-04T05:38:16.194Z,98602.34
2023-05-04T05:41:20.957Z,98595.97
2023-05-04T05:44:23.712Z,98593.06
2023-05-04T05:47:26.626Z,98594.16
2023-05-04T05:50:29.439Z,98596.63
2023-05-04T05:53:32.138Z,98588.84
2023-05-04T05:56:36.270Z,98594.50
2023-05-04T05:59:39.063Z,98595.03
2023-05-04T06:02:42.025Z,98596.38
2023-05-04T06:05:44.880Z,98592.09
2023-05-04T06:08:47.638Z,98595.03
2023-05-04T06:11:53.426Z,98588.00
2023-05-04T06:14:58.246Z,98584.75
2023-05-04T06:18:00.963Z,98595.97
2023-05-04T06:21:04.058Z,98592.69
2023-05-04T06:24:07.215Z,98581.84
2023-05-04T06:27:11.907Z,98584.22
2023-05-04T06:30:15.882Z,98586.00
2023-05-04T06:33:18.808Z,98584.94
2023-05-04T06:36:21.805Z,98579.72
2023-05-04T06:39:24.496Z,98589.72
2023-05-04T06:42:31.926Z,98580.69
2023-05-04T06:45:35.522Z,98588.28
2023-05-04T06:48:38.301Z,98584.22
2023-05-04T06:51:40.937Z,98594.75
2023-05-04T06:54:43.807Z,98587.47
2023-05-04T06:57:47.773Z,98579.38
2023-05-04T07:00:50.687Z,98578.81
2023-05-04T07:03:53.479Z,98586.81
2023-05-04T07:06:56.382Z,98578.13
2023-05-04T07:09:59.091Z,98582.28
2023-05-04T07:13:03.452Z,98579.47
2023-05-04T07:16:08.286Z,98580.84
2023-05-04T07:19:11.508Z,98568.00
2023-05-04T07:22:14.185Z,98574.84
2023-05-04T07:25:16.889Z,98573.53
2023-05-04T07:28:20.952Z,98564.25
2023-05-04T07:31:23.731Z,98561.88
2023-05-04T07:34:37.847Z,98568.88
2023-05-04T07:37:47.599Z,98570.09
2023-05-04T07:40:50.375Z,98572.69
2023-05-04T07:43:54.520Z,98571.31
2023-05-04T07:46:57.641Z,98570.50
2023-05-04T07:50:00.674Z,98569.97
2023-05-04T07:53:03.415Z,98560.47
2023-05-04T07:56:10.441Z,98565.00
2023-05-04T07:59:14.646Z,98562.00
2023-05-04T08:02:17.490Z,98563.66
2023-05-04T08:05:20.310Z,98557.34
2023-05-04T08:08:23.170Z,98556.94
2023-05-04T08:11:26.268Z,98556.50
2023-05-04T08:14:30.417Z,98550.84
2023-05-04T08:17:34.767Z,98533.44
2023-05-04T08:20:37.982Z,98539.88
2023-05-04T08:23:40.719Z,98537.50
2023-05-04T08:26:45.346Z,98533.81
2023-05-04T08:29:51.407Z,98535.56
2023-05-04T08:32:55.403Z,98532.06
2023-05-04T08:35:58.343Z,98527.28
2023-05-04T08:39:01.465Z,98532.88
2023-05-04T08:42:04.218Z,98528.06
2023-05-04T08:45:10.316Z,98525.84
2023-05-04T08:48:13.102Z,98533.84
2023-05-04T08:51:16.223Z,98522.13
2023-05-04T08:54:19.891Z,98508.41
2023-05-04T08:57:24.599Z,98512.53
2023-05-04T09:00:29.897Z,98506.25
2023-05-04T09:03:33.107Z,98513.06
2023-05-04T09:06:36.027Z,98504.69
2023-05-04T09:09:38.761Z,98502.38
2023-05-04T09:12:42.550Z,98495.66
2023-05-04T09:15:56.587Z,98499.88
2023-05-04T09:18:59.399Z,98491.16
2023-05-04T09:22:02.248Z,98481.72
2023-05-04T09:25:14.688Z,98484.59
2023-05-04T09:28:18.431Z,98484.41
2023-05-04T09:31:23.343Z,98485.84
2023-05-04T09:34:26.371Z,98483.72
2023-05-04T09:37:29.145Z,98480.44
2023-05-04T09:40:32.612Z,98475.41
2023-05-04T09:43:40.179Z,98460.06
2023-05-04T09:46:52.797Z,98473.03
2023-05-04T09:49:55.537Z,98468.00
2023-05-04T09:52:58.323Z,98472.66
2023-05-04T09:56:11.353Z,98464.22
2023-05-04T09:59:14.757Z,98455.34
2023-05-04T10:02:23.080Z,98461.03
2023-05-04T10:05:28.461Z,98458.63
2023-05-04T10:08:32.316Z,98465.81
2023-05-04T10:11:35.446Z,98461.34
2023-05-04T10:14:38.660Z,98460.66
2023-05-04T10:18:04.248Z,98448.41
2023-05-04T10:21:23.155Z,98440.03
2023-05-04T10:24:51.453Z,98455.06
2023-05-04T10:28:03.509Z,98446.72
2023-05-04T10:31:07.423Z,98443.66
2023-05-04T10:34:11.984Z,98446.09
2023-05-04T10:37:19.023Z,98430.94
2023-05-04T10:40:33.306Z,98427.28
2023-05-04T10:43:36.002Z,98425.41
2023-05-04T10:46:38.727Z,98412.00
2023-05-04T10:49:42.935Z,98408.72
2023-05-04T10:52:50.059Z,98403.66
2023-05-04T10:55:53.056Z,98398.06
2023-05-04T10:58:56.131Z,98392.75
2023-05-04T11:01:59.007Z,98389.91
2023-05-04T11:05:08.098Z,98387.25
2023-05-04T11:08:18.671Z,98384.94
2023-05-04T11:11:22.436Z,98380.19
2023-05-04T11:14:27.232Z,98377.06
2023-05-04T11:17:30.203Z,98373.16
2023-05-04T11:20:34.320Z,98372.94
2023-05-04T11:23:38.162Z,98372.66
2023-05-04T11:26:48.249Z,98368.69
2023-05-04T11:29:59.388Z,98363.81
2023-05-04T11:33:03.082Z,98357.44
2023-05-04T11:36:08.042Z,98356.94
2023-05-04T11:39:11.582Z,98362.47
2023-05-04T11:42:14.431Z,98352.34
2023-05-04T11:45:20.033Z,98354.53
2023-05-04T11:48:23.046Z,98339.47
2023-05-04T11:51:29.153Z,98338.41
2023-05-04T11:54:31.897Z,98345.50
2023-05-04T11:57:37.113Z,98339.34
2023-05-04T12:00:41.639Z,98335.59
2023-05-04T12:03:53.268Z,98333.38
2023-05-04T12:07:00.326Z,98328.25
2023-05-04T12:10:04.826Z,98327.63
2023-05-04T12:13:16.933Z,98326.56
2023-05-04T12:16:21.110Z,98323.13
2023-05-04T12:19:24.060Z,98325.63
2023-05-04T12:22:32.955Z,98322.91
2023-05-04T12:25:44.204Z,98327.72
2023-05-04T12:28:54.303Z,98320.34
2023-05-04T12:31:57.062Z,98320.75
2023-05-04T12:34:59.837Z,98322.94
2023-05-04T12:38:03.846Z,98316.91
2023-05-04T12:41:10.864Z,98302.66
2023-05-04T12:44:14.340Z,98314.91
2023-05-04T12:47:17.711Z,98318.47
2023-05-04T12:50:20.484Z,98311.97
2023-05-04T12:53:27.819Z,98300.63
2023-05-04T12:56:32.134Z,98303.22
2023-05-04T12:59:34.913Z,98288.94
2023-05-04T13:02:37.784Z,98289.16
2023-05-04T13:05:40.995Z,98280.06
2023-05-04T13:08:47.043Z,98282.72
2023-05-04T13:11:49.784Z,98273.41
2023-05-04T13:14:55.412Z,98267.38
2023-05-04T13:17:58.872Z,98260.56
2023-05-04T13:21:01.697Z,98249.28
2023-05-04T13:24:06.646Z,98241.22
2023-05-04T13:27:12.434Z,98237.47
2023-05-04T13:30:16.996Z,98243.88
2023-05-04T13:33:29.440Z,98239.44
2023-05-04T13:36:33.402Z,98234.25
2023-05-04T13:39:42.551Z,98222.03
2023-05-04T13:42:45.364Z,98216.84
2023-05-04T13:45:48.106Z,98216.63
2023-05-04T13:48:50.791Z,98213.47
2023-05-04T13:51:54.334Z,98215.16
2023-05-04T13:54:58.732Z,98216.84
2023-05-04T13:58:01.632Z,98210.09
2023-05-04T14:01:04.590Z,98204.06
2023-05-04T14:04:07.437Z,98206.44
2023-05-04T14:07:10.590Z,98198.91
2023-05-04T14:10:14.719Z,98195.31
2023-05-04T14:13:17.551Z,98187.03
2023-05-04T14:16:20.682Z,98177.78
2023-05-04T14:19:25.425Z,98169.13
2023-05-04T14:22:29.261Z,98162.88
2023-05-04T14:25:33.374Z,98158.56
2023-05-04T14:28:36.139Z,98157.47
2023-05-04T14:31:38.930Z,98156.34
2023-05-04T14:34:41.782Z,98148.91
2023-05-04T14:37:44.575Z,98146.19
2023-05-04T14:40:49.623Z,98142.84
2023-05-04T14:43:52.551Z,98129.31
2023-05-04T14:46:55.342Z,98144.03
2023-05-04T14:49:58.357Z,98128.75
2023-05-04T14:53:01.062Z,98124.09
2023-05-04T14:56:05.387Z,98121.97
2023-05-04T14:59:08.174Z,98127.56
2023-05-04T15:02:12.536Z,98120.38
2023-05-04T15:05:15.314Z,98126.19
2023-05-04T15:08:18.248Z,98117.97
2023-05-04T15:11:22.282Z,98113.78
2023-05-04T15:14:25.424Z,98113.94
2023-05-04T15:17:28.199Z,98111.72
2023-05-04T15:20:30.867Z,98114.38
2023-05-04T15:23:33.564Z,98107.34
2023-05-04T15:26:37.740Z,98105.22
2023-05-04T15:29:40.544Z,98100.53
2023-05-04T15:32:43.348Z,98107.09
2023-05-04T15:35:46.057Z,98106.50
2023-05-04T15:38:48.735Z,98099.72
2023-05-04T15:41:52.982Z,98115.91
2023-05-04T15:44:55.658Z,98118.66
2023-05-04T15:48:00.168Z,98115.41
2023-05-04T15:51:03.115Z,98121.03
2023-05-04T15:54:05.988Z,98116.72
2023-05-04T15:57:10.108Z,98117.28
2023-05-04T16:00:14.721Z,98120.47
2023-05-04T16:03:17.605Z,98119.72
2023-05-04T16:06:21.636Z,98108.50
2023-05-04T16:09:26.788Z,98112.56
2023-05-04T16:12:30.946Z,98108.19
2023-05-04T16:15:33.941Z,98108.72
2023-05-04T16:18:37.000Z,98102.69
2023-05-04T16:21:39.871Z,98097.31
2023-05-04T16:24:42.674Z,98094.22
2023-05-04T16:27:46.802Z,98089.09
2023-05-04T16:30:50.290Z,98092.91
2023-05-04T16:33:53.148Z,98082.97
2023-05-04T16:36:55.968Z,98085.31
2023-05-04T16:39:58.794Z,98085.44
2023-05-04T16:43:03.200Z,98078.19
2023-05-04T16:46:06.095Z,98083.22
2023-05-04T16:49:10.409Z,98075.50
2023-05-04T16:52:15.763Z,98072.84
2023-05-04T16:55:18.725Z,98080.09
2023-05-04T16:58:22.967Z,98072.47
2023-05-04T17:01:26.154Z,98071.63
2023-05-04T17:04:31.096Z,98071.44
2023-05-04T17:07:34.221Z,98079.19
2023-05-04T17:10:37.091Z,98077.63
2023-05-04T17:13:41.127Z,98083.97
2023-05-04T17:16:43.928Z,98073.47
2023-05-04T17:19:46.760Z,98070.75
2023-05-04T17:22:51.374Z,98067.28
2023-05-04T17:25:54.011Z,98071.63
2023-05-04T17:28:58.317Z,98068.69
2023-05-04T17:32:01.060Z,98059.97
2023-05-04T17:35:20.446Z,98068.94
2023-05-04T17:38:26.722Z,98069.75
2023-05-04T17:41:29.453Z,98075.34
2023-05-04T17:44:33.620Z,98074.31
2023-05-04T17:47:36.393Z,98074.13
2023-05-04T17:50:40.086Z,98067.53
2023-05-04T17:53:42.918Z,98075.75
2023-05-04T17:56:45.634Z,98080.53
2023-05-04T17:59:49.891Z,98077.25
2023-05-04T18:02:52.758Z,98078.38
2023-05-04T18:05:55.457Z,98091.75
2023-05-04T18:08:58.311Z,98093.22
2023-05-04T18:12:00.994Z,98088.34
2023-05-04T18:15:08.152Z,98088.16
2023-05-04T18:18:11.076Z,98095.44
2023-05-04T18:21:13.899Z,98100.13
2023-05-04T18:24:17.065Z,98100.56
2023-05-04T18:27:19.760Z,98105.47
2023-05-04T18:30:23.802Z,98099.19
2023-05-04T18:33:26.799Z,98104.75
2023-05-04T18:36:30.035Z,98114.19
2023-05-04T18:39:32.864Z,98121.59
2023-05-04T18:42:35.639Z,98123.41
2023-05-04T18:45:39.916Z,98131.22
2023-05-04T18:48:42.752Z,98129.97
2023-05-04T18:51:45.481Z,98130.59
2023-05-04T18:54:49.353Z,98139.66
2023-05-04T18:57:52.188Z,98137.13
2023-05-04T19:00:56.217Z,98140.28
2023-05-04T19:03:58.978Z,98142.41
2023-05-04T19:07:01.880Z,98148.88
2023-05-04T19:10:05.425Z,98157.25
2023-05-04T19:13:08.319Z,98151.34
2023-05-04T19:16:13.956Z,98157.13
2023-05-04T19:19:16.819Z,98165.47
2023-05-04T19:22:19.534Z,98164.19
2023-05-04T19:25:33.712Z,98166.19
2023-05-04T19:28:39.818Z,98168.63
2023-05-04T19:31:43.860Z,98167.44
2023-05-04T19:34:46.579Z,98171.97
2023-05-04T19:37:50.506Z,98176.78
2023-05-04T19:40:53.372Z,98181.81
2023-05-04T19:43:56.106Z,98177.09
2023-05-04T19:47:00.418Z,98186.28
2023-05-04T19:50:03.914Z,98181.19
2023-05-04T19:53:06.588Z,98186.03
2023-05-04T19:56:09.246Z,98189.44
2023-05-04T19:59:11.991Z,98184.97
2023-05-04T20:02:16.207Z,98193.78
2023-05-04T20:05:19.472Z,98193.03
2023-05-04T20:08:24.933Z,98199.44
2023-05-04T20:11:27.679Z,98202.31
2023-05-04T20:14:31.334Z,98197.19
2023-05-04T20:17:35.438Z,98194.97
2023-05-04T20:20:38.257Z,98195.56
2023-05-04T20:23:41.095Z,98198.94
2023-05-04T20:26:43.816Z,98195.59
2023-05-04T20:29:46.569Z,98194.47
2023-05-04T20:32:50.633Z,98195.91
2023-05-04T20:35:53.492Z,98192.06
2023-05-04T20:38:56.335Z,98194.47
2023-05-04T20:41:59.086Z,98204.34
2023-05-04T20:45:01.749Z,98195.22
2023-05-04T20:48:06.725Z,98205.78
2023-05-04T20:51:14.679Z,98196.50
2023-05-04T20:54:19.645Z,98203.22
2023-05-04T20:57:22.477Z,98196.53
2023-05-04T21:00:25.223Z,98197.34
2023-05-04T21:03:29.412Z,98192.25
2023-05-04T21:06:32.383Z,98194.63
2023-05-04T21:09:35.149Z,98190.47
2023-05-04T21:12:37.913Z,98187.44
2023-05-04T21:15:40.744Z,98180.88
2023-05-04T21:18:45.648Z,98190.78
2023-05-04T21:21:48.369Z,98181.38
2023-05-04T21:24:51.131Z,98185.84
2023-05-04T21:27:53.983Z,98183.78
2023-05-04T21:30:56.984Z,98189.22
2023-05-04T21:34:01.358Z,98187.94
2023-05-04T21:37:04.827Z,98185.06
2023-05-04T21:40:09.686Z,98180.91
2023-05-04T21:43:12.606Z,98180.28
2023-05-04T21:46:15.636Z,98174.72
2023-05-04T21:49:19.710Z,98176.31
2023-05-04T21:52:23.354Z,98175.00
2023-05-04T21:55:26.407Z,98180.59
2023-05-04T21:58:29.599Z,98176.88
2023-05-04T22:01:32.357Z,98183.72
2023-05-04T22:04:37.203Z,98174.63
2023-05-04T22:07:39.950Z,98182.22
2023-05-04T22:10:42.736Z,98182.81
2023-05-04T22:13:45.445Z,98189.53
2023-05-04T22:16:49.186Z,98189.81
2023-05-04T22:19:53.350Z,98195.50
2023-05-04T22:22:56.060Z,98183.19
2023-05-04T22:25:58.852Z,98189.38
2023-05-04T22:29:01.586Z,98186.47
2023-05-04T22:32:04.732Z,98182.28
2023-05-04T22:35:10.161Z,98194.03
2023-05-04T22:38:14.220Z,98185.38
2023-05-04T22:41:16.996Z,98185.81
2023-05-04T22:44:19.664Z,98200.47
2023-05-04T22:47:22.623Z,98191.97
2023-05-04T22:50:28.251Z,98193.41
2023-05-04T22:53:30.882Z,98202.63
2023-05-04T22:56:34.048Z,98197.34
2023-05-04T22:59:36.895Z,98201.59
2023-05-04T23:02:39.622Z,98202.31
2023-05-04T23:05:43.628Z,98195.13
2023-05-04T23:08:46.364Z,98196.53
2023-05-04T23:11:49.188Z,98200.97
2023-05-04T23:14:52.732Z,98208.13
2023-05-04T23:17:55.465Z,98206.97
2023-05-04T23:20:59.532Z,98201.56
2023-05-04T23:24:02.259Z,98203.94
2023-05-04T23:27:05.073Z,98204.94
2023-05-04T23:30:09.245Z,98211.47
2023-05-04T23:33:12.287Z,98215.47
2023-05-04T23:36:16.599Z,98212.47
2023-05-04T23:39:19.328Z,98214.03
2023-05-04T23:42:22.004Z,98214.53
2023-05-04T23:45:24.787Z,98215.84
2023-05-04T23:48:27.440Z,98220.63
2023-05-04T23:51:32.750Z,98216.81
2023-05-04T23:54:35.551Z,98224.94
2023-05-04T23:57:38.230Z,98223.81
